createdAt,value
2023-02-27T00:00:44.760Z,5.60
2023-02-27T00:05:46.657Z,5.87
2023-02-27T00:10:48.309Z,4.97
2023-02-27T00:15:50.422Z,5.13
2023-02-27T00:20:52.071Z,4.97
2023-02-27T00:25:54.792Z,4.60
2023-02-27T00:30:56.565Z,5.40
2023-02-27T00:35:59.082Z,6.03
2023-02-27T00:41:01.525Z,5.30
2023-02-27T00:46:03.653Z,5.10
2023-02-27T00:51:05.478Z,5.50
2023-02-27T00:56:07.834Z,5.13
2023-02-27T01:01:09.519Z,5.60
2023-02-27T01:06:11.886Z,5.07
2023-02-27T01:11:13.522Z,4.60
2023-02-27T01:16:15.202Z,5.87
2023-02-27T01:21:17.031Z,5.20
2023-02-27T01:26:19.915Z,5.07
2023-02-27T01:31:21.837Z,5.57
2023-02-27T01:36:24.000Z,5.33
2023-02-27T01:41:25.968Z,4.97
2023-02-27T01:46:30.265Z,5.93
2023-02-27T01:51:36.908Z,4.53
2023-02-27T01:56:38.758Z,5.13
2023-02-27T02:01:40.500Z,5.90
2023-02-27T02:06:47.174Z,5.90
2023-02-27T02:11:48.868Z,5.47
2023-02-27T02:16:59.537Z,5.47
2023-02-27T02:22:45.333Z,5.37
2023-02-27T02:28:08.150Z,5.13
2023-02-27T02:33:15.442Z,5.10
2023-02-27T02:38:39.897Z,5.70
2023-02-27T02:43:50.741Z,5.63
2023-02-27T02:49:20.300Z,5.43
2023-02-27T02:54:38.110Z,5.73
2023-02-27T02:59:55.014Z,5.23
2023-02-27T03:05:00.748Z,5.80
2023-02-27T03:10:21.631Z,6.33
2023-02-27T03:15:26.135Z,6.00
2023-02-27T03:20:42.593Z,6.17
2023-02-27T03:25:46.345Z,6.60
2023-02-27T03:31:02.185Z,6.70
2023-02-27T03:36:17.626Z,5.90
2023-02-27T03:41:55.130Z,6.30
2023-02-27T03:47:08.327Z,6.27
2023-02-27T03:52:10.496Z,6.83
2023-02-27T03:57:15.187Z,6.40
2023-02-27T04:02:17.248Z,6.57
2023-02-27T04:07:40.107Z,6.40
2023-02-27T04:13:15.534Z,6.50
2023-02-27T04:18:29.115Z,6.43
2023-02-27T04:23:30.575Z,6.23
2023-02-27T04:28:46.125Z,5.97
2023-02-27T04:33:59.026Z,5.60
2023-02-27T04:39:08.418Z,5.63
2023-02-27T04:44:11.879Z,4.90
2023-02-27T04:49:18.056Z,5.67
2023-02-27T04:54:25.288Z,5.10
2023-02-27T04:59:31.236Z,5.60
2023-02-27T05:04:35.939Z,5.30
2023-02-27T05:09:39.064Z,5.53
2023-02-27T05:14:42.745Z,6.07
2023-02-27T05:19:44.841Z,5.30
2023-02-27T05:25:11.150Z,6.07
2023-02-27T05:30:54.495Z,6.40
2023-02-27T05:36:15.818Z,6.33
2023-02-27T05:41:28.263Z,5.30
2023-02-27T05:46:39.476Z,6.20
2023-02-27T05:51:43.619Z,5.87
2023-02-27T05:56:47.258Z,5.33
2023-02-27T06:01:49.008Z,5.30
2023-02-27T06:06:50.659Z,5.97
2023-02-27T06:11:52.367Z,6.07
2023-02-27T06:16:53.920Z,6.30
2023-02-27T06:21:55.471Z,5.83
2023-02-27T06:26:56.994Z,6.37
2023-02-27T06:31:58.654Z,5.53
2023-02-27T06:37:01.551Z,6.17
2023-02-27T06:42:04.899Z,6.30
2023-02-27T06:47:06.563Z,10.60
2023-02-27T06:52:08.118Z,8.67
2023-02-27T06:57:10.186Z,16.50
2023-02-27T07:02:14.644Z,19.47
2023-02-27T07:07:34.861Z,8.90
2023-02-27T07:12:38.963Z,7.67
2023-02-27T07:17:40.532Z,6.20
2023-02-27T07:22:42.318Z,5.30
2023-02-27T07:27:45.999Z,4.00
2023-02-27T07:32:47.613Z,4.50
2023-02-27T07:37:49.209Z,3.97
2023-02-27T07:42:53.061Z,5.93
2023-02-27T07:47:54.872Z,4.30
2023-02-27T07:52:56.475Z,3.57
2023-02-27T07:57:58.030Z,5.87
2023-02-27T08:03:00.496Z,3.50
2023-02-27T08:08:03.680Z,3.83
2023-02-27T08:13:05.189Z,4.03
2023-02-27T08:18:06.900Z,4.20
2023-02-27T08:23:09.630Z,3.53
2023-02-27T08:28:11.209Z,3.57
2023-02-27T08:33:12.970Z,2.97
2023-02-27T08:38:14.546Z,4.47
2023-02-27T08:43:16.080Z,3.40
2023-02-27T08:48:18.544Z,3.17
2023-02-27T08:53:20.241Z,3.87
2023-02-27T08:58:22.055Z,3.80
2023-02-27T09:03:29.011Z,3.43
2023-02-27T09:08:30.696Z,4.00
2023-02-27T09:13:32.347Z,8.47
2023-02-27T09:18:34.704Z,5.53
2023-02-27T09:23:36.879Z,2.60
2023-02-27T09:28:40.066Z,2.67
2023-02-27T09:33:41.920Z,2.20
2023-02-27T09:38:43.455Z,4.47
2023-02-27T09:43:48.611Z,3.17
2023-02-27T09:49:00.993Z,3.53
2023-02-27T09:54:02.794Z,2.33
2023-02-27T09:59:24.340Z,3.40
2023-02-27T10:04:39.873Z,1.80
2023-02-27T10:09:57.062Z,1.87
2023-02-27T10:15:06.003Z,2.60
2023-02-27T10:20:13.738Z,1.93
2023-02-27T10:25:30.222Z,4.10
2023-02-27T10:30:34.909Z,2.10
2023-02-27T10:35:42.372Z,2.10
2023-02-27T10:40:45.561Z,1.53
2023-02-27T10:45:47.130Z,2.20
2023-02-27T10:50:52.190Z,1.70
2023-02-27T10:56:19.151Z,1.77
2023-02-27T11:01:20.984Z,1.90
2023-02-27T11:06:25.620Z,2.00
2023-02-27T11:11:28.813Z,1.57
2023-02-27T11:16:51.736Z,1.83
2023-02-27T11:22:03.265Z,2.00
2023-02-27T11:27:20.834Z,1.90
2023-02-27T11:32:22.537Z,1.43
2023-02-27T11:37:30.815Z,1.83
2023-02-27T11:42:34.740Z,1.63
2023-02-27T11:47:39.011Z,1.70
2023-02-27T11:53:05.792Z,1.63
2023-02-27T11:58:14.458Z,1.90
2023-02-27T12:03:24.965Z,1.60
2023-02-27T12:08:54.936Z,1.60
2023-02-27T12:14:05.537Z,1.60
2023-02-27T12:19:21.595Z,1.60
2023-02-27T12:24:31.477Z,1.50
2023-02-27T12:29:48.295Z,1.53
2023-02-27T12:34:55.224Z,1.50
2023-02-27T12:40:00.308Z,1.33
2023-02-27T12:45:23.035Z,2.07
2023-02-27T12:50:25.938Z,1.63
2023-02-27T12:55:31.179Z,1.40
2023-02-27T13:00:46.279Z,1.70
2023-02-27T13:06:29.698Z,1.53
2023-02-27T13:11:44.531Z,1.77
2023-02-27T13:16:57.467Z,1.40
2023-02-27T13:22:30.475Z,1.90
2023-02-27T13:27:42.174Z,1.30
2023-02-27T13:33:16.032Z,1.37
2023-02-27T13:38:41.699Z,1.30
2023-02-27T13:43:51.683Z,1.60
2023-02-27T13:49:06.053Z,1.43
2023-02-27T13:54:28.642Z,1.57
2023-02-27T13:59:30.147Z,1.90
2023-02-27T14:04:34.537Z,1.93
2023-02-27T14:09:39.824Z,1.47
2023-02-27T14:14:47.386Z,1.73
2023-02-27T14:19:50.527Z,1.70
2023-02-27T14:25:18.257Z,1.40
2023-02-27T14:30:31.901Z,1.43
2023-02-27T14:35:34.711Z,1.33
2023-02-27T14:40:40.912Z,2.00
2023-02-27T14:45:42.473Z,1.40
2023-02-27T14:50:43.997Z,1.67
2023-02-27T14:55:54.009Z,1.40
2023-02-27T15:00:55.504Z,1.60
2023-02-27T15:05:59.923Z,1.60
2023-02-27T15:11:02.409Z,1.40
2023-02-27T15:16:41.264Z,1.27
2023-02-27T15:21:50.005Z,1.70
2023-02-27T15:26:54.493Z,1.40
2023-02-27T15:31:56.259Z,1.60
2023-02-27T15:36:59.234Z,1.70
2023-02-27T15:42:05.317Z,2.30
2023-02-27T15:47:07.765Z,1.60
2023-02-27T15:52:17.360Z,1.80
2023-02-27T15:57:23.055Z,2.00
2023-02-27T16:02:40.214Z,1.73
2023-02-27T16:07:43.300Z,2.00
2023-02-27T16:12:45.272Z,3.10
2023-02-27T16:18:07.751Z,1.90
2023-02-27T16:23:23.534Z,1.60
2023-02-27T16:28:31.809Z,2.00
2023-02-27T16:33:36.571Z,1.80
2023-02-27T16:38:38.448Z,1.97
2023-02-27T16:43:40.023Z,1.67
2023-02-27T16:48:41.850Z,1.57
2023-02-27T16:53:44.214Z,1.83
2023-02-27T16:58:46.789Z,2.10
2023-02-27T17:03:48.365Z,1.83
2023-02-27T17:08:50.065Z,1.80
2023-02-27T17:13:51.960Z,3.40
2023-02-27T17:18:53.498Z,2.40
2023-02-27T17:23:55.049Z,2.20
2023-02-27T17:28:57.768Z,2.10
2023-02-27T17:33:59.502Z,2.37
2023-02-27T17:39:01.777Z,2.20
2023-02-27T17:44:03.874Z,2.50
2023-02-27T17:49:05.843Z,3.20
2023-02-27T17:54:08.331Z,2.47
2023-02-27T17:59:10.868Z,2.30
2023-02-27T18:04:12.756Z,2.47
2023-02-27T18:09:14.489Z,2.60
2023-02-27T18:14:16.307Z,4.20
2023-02-27T18:19:18.487Z,5.57
2023-02-27T18:24:20.636Z,3.97
2023-02-27T18:29:22.421Z,4.17
2023-02-27T18:34:25.109Z,4.43
2023-02-27T18:39:26.730Z,4.30
2023-02-27T18:44:28.355Z,4.00
2023-02-27T18:49:29.918Z,7.83
2023-02-27T18:54:31.639Z,35.23
2023-02-27T18:59:33.252Z,21.07
2023-02-27T19:04:34.889Z,17.63
2023-02-27T19:09:36.602Z,8.30
2023-02-27T19:14:38.630Z,9.57
2023-02-27T19:19:40.204Z,7.33
2023-02-27T19:24:41.776Z,6.40
2023-02-27T19:29:43.330Z,4.60
2023-02-27T19:34:44.983Z,6.30
2023-02-27T19:39:46.614Z,3.97
2023-02-27T19:44:48.299Z,3.67
2023-02-27T19:49:49.830Z,3.40
2023-02-27T19:54:51.464Z,4.30
2023-02-27T19:59:53.099Z,5.80
2023-02-27T20:04:54.804Z,4.67
2023-02-27T20:09:56.660Z,8.27
2023-02-27T20:14:58.292Z,6.13
2023-02-27T20:19:59.803Z,4.90
2023-02-27T20:25:01.496Z,4.63
2023-02-27T20:30:03.576Z,4.97
2023-02-27T20:35:06.583Z,5.83
2023-02-27T20:40:08.806Z,7.43
2023-02-27T20:45:10.700Z,8.80
2023-02-27T20:50:12.579Z,8.63
2023-02-27T20:55:14.176Z,8.70
2023-02-27T21:00:16.573Z,6.60
2023-02-27T21:05:18.241Z,6.47
2023-02-27T21:10:19.816Z,6.80
2023-02-27T21:15:21.552Z,6.27
2023-02-27T21:20:23.137Z,7.47
2023-02-27T21:25:25.260Z,7.63
2023-02-27T21:30:26.852Z,6.83
2023-02-27T21:35:28.889Z,6.23
2023-02-27T21:40:30.557Z,6.00
2023-02-27T21:45:32.172Z,8.43
2023-02-27T21:50:33.930Z,5.47
2023-02-27T21:55:35.641Z,5.50
2023-02-27T22:00:37.659Z,5.30
2023-02-27T22:05:41.252Z,5.13
2023-02-27T22:10:45.747Z,6.23
2023-02-27T22:15:47.429Z,5.60
2023-02-27T22:20:49.091Z,6.80
2023-02-27T22:26:04.962Z,5.33
2023-02-27T22:31:10.666Z,4.90
2023-02-27T22:36:32.401Z,4.97
2023-02-27T22:41:36.769Z,5.00
2023-02-27T22:46:40.481Z,5.33
2023-02-27T22:51:42.222Z,5.80
2023-02-27T22:56:43.797Z,5.27
2023-02-27T23:01:45.871Z,4.67
2023-02-27T23:06:47.781Z,4.57
2023-02-27T23:11:49.528Z,5.00
2023-02-27T23:16:51.496Z,4.83
2023-02-27T23:21:54.078Z,4.50
2023-02-27T23:26:56.140Z,4.80
2023-02-27T23:31:57.862Z,5.00
2023-02-27T23:36:59.514Z,4.87
2023-02-27T23:42:01.250Z,4.37
2023-02-27T23:47:02.960Z,4.23
2023-02-27T23:52:04.670Z,4.60
2023-02-27T23:57:06.421Z,5.37
